Time;durP1;ratioP1;P1;durP2;ratioP2;P2;SDS_P1;SDS_P2;PMS_P1;PMS_P2;Temp;Humidity;BMP_temperature;BMP_pressure;BME280_temperature;BME280_humidity;BME280_pressure;Samples;Min_cycle;Max_cycle;Signal;HPM_P1;HPM_P2
2024/01/07 00:01:39;;;;;;;0.63;0.63;;;;;;;1.54;80.14;101329.44;5026772;28;20037;-77
2024/01/07 00:04:04;;;;;;;0.40;0.40;;;;;;;1.43;79.70;101325.25;5010514;28;20037;-76
2024/01/07 00:06:30;;;;;;;0.40;0.40;;;;;;;1.54;79.43;101334.75;5027393;28;20124;-76
2024/01/07 00:08:55;;;;;;;0.40;0.40;;;;;;;1.48;79.21;101327.09;5024548;28;20076;-75
2024/01/07 00:11:21;;;;;;;0.73;0.55;;;;;;;1.57;79.63;101334.16;5025051;28;20037;-76
2024/01/07 00:13:46;;;;;;;0.63;0.38;;;;;;;1.58;79.62;101338.41;5010027;28;20044;-76
2024/01/07 00:16:12;;;;;;;0.80;0.80;;;;;;;1.56;79.59;101343.22;5025182;28;20047;-76
2024/01/07 00:18:37;;;;;;;0.38;0.38;;;;;;;1.50;79.59;101344.31;5028472;28;20025;-76
2024/01/07 00:21:03;;;;;;;0.25;0.25;;;;;;;1.45;78.74;101346.22;5024920;28;20200;-77
2024/01/07 00:23:28;;;;;;;0.22;0.22;;;;;;;1.65;79.00;101346.84;5028575;28;20033;-76
2024/01/07 00:25:54;;;;;;;0.32;0.32;;;;;;;1.39;78.72;101345.47;5029517;28;20564;-76
2024/01/07 00:28:20;;;;;;;0.40;0.40;;;;;;;1.70;78.96;101360.06;5020744;28;20025;-76
2024/01/07 00:30:46;;;;;;;0.30;0.30;;;;;;;1.54;78.78;101352.50;4998156;28;20095;-76
2024/01/07 00:33:11;;;;;;;0.80;0.40;;;;;;;1.45;78.89;101349.66;5022482;28;20030;-76
2024/01/07 00:35:37;;;;;;;0.88;0.80;;;;;;;1.63;78.45;101353.50;5024198;28;20048;-76
2024/01/07 00:38:02;;;;;;;0.40;0.40;;;;;;;1.56;79.25;101351.19;5027527;28;20025;-77
2024/01/07 00:40:28;;;;;;;0.63;0.50;;;;;;;1.57;78.94;101354.59;5027018;28;20410;-76
2024/01/07 00:42:53;;;;;;;0.30;0.30;;;;;;;1.40;79.48;101355.00;5026377;28;20742;-76
2024/01/07 00:45:19;;;;;;;0.40;0.40;;;;;;;1.50;78.40;101354.94;5007408;28;20045;-77
2024/01/07 00:47:44;;;;;;;0.60;0.60;;;;;;;1.36;78.22;101358.47;5029978;28;20056;-77
2024/01/07 00:50:10;;;;;;;0.60;0.55;;;;;;;1.63;78.03;101370.22;5033707;28;20056;-77
2024/01/07 00:52:37;;;;;;;1.25;0.73;;;;;;;1.15;79.76;101368.41;5008964;28;20477;-78
2024/01/07 00:55:06;;;;;;;0.40;0.40;;;;;;;1.22;79.81;101373.44;5018980;28;20029;-77
2024/01/07 00:57:32;;;;;;;0.40;0.40;;;;;;;1.10;79.80;101375.63;5019928;28;20037;-76
2024/01/07 00:59:58;;;;;;;0.60;0.60;;;;;;;1.13;80.14;101378.50;5013683;28;20759;-77
2024/01/07 01:02:23;;;;;;;0.40;0.40;;;;;;;1.08;79.93;101383.84;5016414;28;21649;-77
2024/01/07 01:04:49;;;;;;;0.43;0.43;;;;;;;0.88;80.45;101376.00;5017913;28;20052;-76
2024/01/07 01:07:14;;;;;;;0.30;0.30;;;;;;;0.81;79.92;101380.81;5017111;28;20030;-77
2024/01/07 01:09:41;;;;;;;0.32;0.32;;;;;;;1.01;80.00;101386.00;5017321;28;20029;-76
2024/01/07 01:12:07;;;;;;;0.50;0.50;;;;;;;1.15;78.92;101386.97;5017201;28;20056;-77
2024/01/07 01:14:32;;;;;;;0.28;0.28;;;;;;;1.23;78.75;101399.69;5016288;28;20017;-77
2024/01/07 01:16:58;;;;;;;0.68;0.68;;;;;;;1.12;79.25;101400.00;5017721;28;21221;-77
2024/01/07 01:19:24;;;;;;;1.40;0.65;;;;;;;1.21;79.57;101412.41;5025469;28;20032;-77
2024/01/07 01:21:49;;;;;;;0.28;0.28;;;;;;;1.14;78.90;101409.28;5026300;28;20033;-77
2024/01/07 01:24:15;;;;;;;1.85;0.60;;;;;;;1.14;79.02;101413.78;5005900;28;20033;-77
2024/01/07 01:26:40;;;;;;;0.85;0.85;;;;;;;1.12;79.06;101411.41;5006331;28;20036;-76
2024/01/07 01:29:06;;;;;;;1.45;0.65;;;;;;;1.24;78.69;101419.81;5041396;28;20106;-77
2024/01/07 01:31:31;;;;;;;0.40;0.40;;;;;;;1.20;78.71;101423.31;5025114;28;20057;-77
2024/01/07 01:33:57;;;;;;;0.32;0.32;;;;;;;1.19;78.70;101427.00;5020263;28;20029;-76
2024/01/07 01:36:22;;;;;;;0.32;0.32;;;;;;;1.24;78.49;101433.06;5023285;28;20506;-77
2024/01/07 01:38:48;;;;;;;0.40;0.40;;;;;;;1.10;78.79;101426.78;5020756;28;20175;-78
2024/01/07 01:41:16;;;;;;;1.35;0.43;;;;;;;0.75;79.76;101429.59;5020263;28;20610;-77
2024/01/07 01:43:42;;;;;;;0.60;0.60;;;;;;;0.90;80.18;101418.91;5021190;28;20136;-77
2024/01/07 01:46:07;;;;;;;0.52;0.52;;;;;;;1.14;79.25;101430.50;5035244;28;20133;-77
2024/01/07 01:48:35;;;;;;;0.20;0.20;;;;;;;1.27;79.69;101445.81;5021296;28;20110;-77
2024/01/07 01:51:00;;;;;;;0.30;0.30;;;;;;;0.97;80.06;101447.78;5024531;28;20037;-77
2024/01/07 01:53:26;;;;;;;0.40;0.40;;;;;;;1.16;79.64;101446.13;5024727;28;20082;-77
2024/01/07 01:55:55;;;;;;;0.88;0.60;;;;;;;1.26;79.48;101449.50;5003812;28;20049;-77
2024/01/07 01:58:21;;;;;;;0.40;0.40;;;;;;;1.40;79.21;101455.81;5021134;28;20463;-78
2024/01/07 02:00:47;;;;;;;0.30;0.30;;;;;;;1.32;78.96;101452.91;5018078;28;20029;-78
2024/01/07 02:03:12;;;;;;;0.88;0.88;;;;;;;1.35;79.56;101460.34;5023959;28;20036;-77
2024/01/07 02:05:38;;;;;;;0.70;0.70;;;;;;;1.33;79.03;101465.13;5010410;28;20558;-77
2024/01/07 02:08:04;;;;;;;0.30;0.30;;;;;;;1.24;79.24;101467.53;5005777;28;20058;-77
2024/01/07 02:10:36;;;;;;;0.40;0.40;;;;;;;1.33;78.91;101473.88;5022949;28;20521;-78
2024/01/07 02:13:05;;;;;;;0.75;0.75;;;;;;;1.35;79.25;101479.72;5036085;28;20087;-77
2024/01/07 02:15:31;;;;;;;0.30;0.30;;;;;;;1.49;78.98;101467.41;5009029;28;20079;-78
2024/01/07 02:17:56;;;;;;;1.13;1.13;;;;;;;1.51;78.57;101477.78;5012400;28;20030;-78
2024/01/07 02:20:23;;;;;;;0.30;0.30;;;;;;;1.46;79.02;101483.09;5009671;28;20160;-78
2024/01/07 02:22:49;;;;;;;0.28;0.28;;;;;;;1.56;78.75;101475.09;4989822;28;20036;-78
2024/01/07 02:25:15;;;;;;;0.35;0.35;;;;;;;1.58;78.52;101483.56;5023821;28;20422;-76
2024/01/07 02:27:40;;;;;;;0.70;0.70;;;;;;;1.55;78.73;101482.25;5007505;28;20059;-77
2024/01/07 02:30:06;;;;;;;0.55;0.55;;;;;;;1.59;78.58;101475.31;5028654;28;20045;-77
2024/01/07 02:32:34;;;;;;;0.85;0.65;;;;;;;1.51;77.73;101486.50;5032103;28;20029;-77
2024/01/07 02:35:01;;;;;;;0.30;0.30;;;;;;;1.24;78.78;101482.69;5015045;28;20497;-76
2024/01/07 02:37:27;;;;;;;0.35;0.35;;;;;;;0.99;79.63;101482.78;5029661;28;20056;-77
2024/01/07 02:39:52;;;;;;;0.40;0.40;;;;;;;1.24;79.96;101494.06;5024309;28;20025;-77
2024/01/07 02:42:18;;;;;;;0.30;0.30;;;;;;;1.29;79.97;101486.09;5023339;28;20502;-76
2024/01/07 02:44:43;;;;;;;0.65;0.65;;;;;;;1.30;79.57;101492.97;5019000;28;20046;-77
2024/01/07 02:47:09;;;;;;;0.52;0.52;;;;;;;1.32;79.75;101492.72;5026823;28;20045;-77
2024/01/07 02:49:35;;;;;;;0.38;0.38;;;;;;;1.41;79.34;101499.84;5019456;28;20026;-77
2024/01/07 02:52:01;;;;;;;0.40;0.40;;;;;;;1.41;79.35;101494.53;5026414;28;20420;-77
2024/01/07 02:54:27;;;;;;;0.70;0.70;;;;;;;1.32;79.54;101498.00;5020438;28;20030;-77
2024/01/07 02:56:53;;;;;;;0.30;0.30;;;;;;;1.57;79.65;101509.31;5020218;28;20033;-78
2024/01/07 02:59:19;;;;;;;0.52;0.52;;;;;;;1.44;79.23;101494.00;5019925;28;20399;-77
2024/01/07 03:01:45;;;;;;;0.45;0.45;;;;;;;1.30;79.80;101506.25;5005936;28;20040;-77
2024/01/07 03:04:12;;;;;;;0.60;0.60;;;;;;;1.46;79.46;101507.78;5013614;28;20048;-78
2024/01/07 03:06:39;;;;;;;0.60;0.60;;;;;;;1.36;79.86;101515.78;5026008;28;20060;-77
2024/01/07 03:09:04;;;;;;;0.20;0.20;;;;;;;1.61;79.60;101510.34;5035987;28;20521;-78
2024/01/07 03:11:30;;;;;;;0.20;0.20;;;;;;;1.55;79.34;101508.78;5022075;28;20120;-77
2024/01/07 03:13:56;;;;;;;0.20;0.20;;;;;;;1.68;79.21;101521.44;5019343;28;20051;-78
2024/01/07 03:16:23;;;;;;;1.70;1.08;;;;;;;1.73;78.72;101518.78;5019535;28;20056;-77
2024/01/07 03:18:48;;;;;;;0.75;0.75;;;;;;;1.76;79.21;101518.22;5021986;28;20044;-77
2024/01/07 03:21:21;;;;;;;0.25;0.25;;;;;;;1.76;79.38;101515.56;5020810;28;20426;-77
2024/01/07 03:23:48;;;;;;;0.25;0.25;;;;;;;1.79;79.27;101523.00;5020572;28;20041;-78
2024/01/07 03:26:14;;;;;;;0.52;0.40;;;;;;;1.78;79.30;101518.75;5004140;28;20041;-77
2024/01/07 03:28:39;;;;;;;0.20;0.20;;;;;;;1.72;79.59;101529.69;5020654;28;20041;-77
2024/01/07 03:31:13;;;;;;;0.43;0.43;;;;;;;1.83;79.82;101532.00;5024651;28;20037;-76
2024/01/07 03:33:40;;;;;;;0.65;0.57;;;;;;;1.87;79.42;101536.75;5028384;28;20045;-76
2024/01/07 03:36:11;;;;;;;0.30;0.30;;;;;;;1.92;79.34;101534.84;5023805;28;20132;-76
2024/01/07 03:38:37;;;;;;;1.15;0.52;;;;;;;1.80;79.75;101539.72;5036955;28;20804;-77
2024/01/07 03:41:03;;;;;;;0.47;0.40;;;;;;;1.80;79.70;101537.06;5020902;28;20124;-76
2024/01/07 03:43:31;;;;;;;3.38;0.32;;;;;;;1.75;80.52;101531.78;5022011;28;20135;-77
2024/01/07 03:45:57;;;;;;;0.63;0.30;;;;;;;1.80;79.98;101534.41;5023124;28;20037;-77
2024/01/07 03:48:23;;;;;;;0.30;0.30;;;;;;;1.78;79.85;101539.97;5023171;28;20100;-76
2024/01/07 03:50:49;;;;;;;0.40;0.40;;;;;;;1.87;80.39;101542.06;5012462;28;20073;-76
2024/01/07 03:53:15;;;;;;;0.20;0.20;;;;;;;1.88;79.03;101546.31;5026501;28;20022;-76
2024/01/07 03:55:40;;;;;;;0.32;0.32;;;;;;;1.83;79.51;101545.28;5019119;28;20394;-76
2024/01/07 03:58:06;;;;;;;0.30;0.30;;;;;;;1.81;79.39;101544.75;5020523;28;20037;-76
2024/01/07 04:00:32;;;;;;;0.47;0.47;;;;;;;2.04;79.52;101550.44;5021772;28;20718;-76
2024/01/07 04:02:58;;;;;;;0.60;0.60;;;;;;;1.98;78.95;101557.66;5005538;28;20056;-77
2024/01/07 04:05:23;;;;;;;0.50;0.50;;;;;;;1.78;78.98;101552.47;5027566;28;20532;-77
2024/01/07 04:07:48;;;;;;;1.48;0.85;;;;;;;1.87;79.22;101558.78;5030276;28;20116;-76
2024/01/07 04:10:16;;;;;;;0.40;0.40;;;;;;;1.93;79.87;101554.25;5027334;28;20159;-77
2024/01/07 04:12:42;;;;;;;0.75;0.60;;;;;;;1.90;79.27;101565.41;5013227;28;20037;-77
2024/01/07 04:15:07;;;;;;;0.30;0.30;;;;;;;1.81;79.32;101571.31;5032264;28;20091;-76
2024/01/07 04:17:33;;;;;;;0.20;0.20;;;;;;;1.86;79.81;101575.00;5012318;28;20032;-76
2024/01/07 04:19:58;;;;;;;0.25;0.25;;;;;;;1.90;79.51;101579.47;5025763;28;20518;-77
2024/01/07 04:22:24;;;;;;;0.30;0.30;;;;;;;1.94;79.55;101577.84;5026199;28;20094;-76
2024/01/07 04:24:49;;;;;;;0.40;0.40;;;;;;;1.84;79.96;101583.22;5025023;28;20035;-76
2024/01/07 04:27:15;;;;;;;0.85;0.60;;;;;;;1.92;79.44;101585.31;5019952;28;20090;-76
2024/01/07 04:29:40;;;;;;;0.43;0.43;;;;;;;1.91;79.89;101591.69;5017390;28;20104;-76
2024/01/07 04:32:06;;;;;;;0.40;0.40;;;;;;;2.03;79.80;101591.38;5004656;28;20068;-76
2024/01/07 04:34:31;;;;;;;0.20;0.20;;;;;;;2.04;79.73;101593.75;5023249;28;20021;-77
2024/01/07 04:36:57;;;;;;;2.88;0.93;;;;;;;2.01;79.81;101588.19;5022224;28;20048;-77
2024/01/07 04:39:23;;;;;;;0.52;0.52;;;;;;;2.02;80.21;101592.41;5028498;28;20164;-76
2024/01/07 04:41:48;;;;;;;0.60;0.55;;;;;;;2.01;80.47;101593.50;5029943;28;20059;-77
2024/01/07 04:44:14;;;;;;;0.45;0.45;;;;;;;1.88;80.47;101596.75;5029172;28;20061;-77
2024/01/07 04:46:40;;;;;;;0.40;0.40;;;;;;;2.00;79.77;101591.91;5024376;28;20033;-78
2024/01/07 04:49:06;;;;;;;0.57;0.45;;;;;;;1.98;80.02;101592.19;5028580;28;20041;-78
2024/01/07 04:51:32;;;;;;;0.50;0.40;;;;;;;2.06;79.88;101596.91;5027379;28;20037;-78
2024/01/07 04:53:58;;;;;;;0.15;0.15;;;;;;;2.14;79.56;101600.84;5024370;28;20026;-78
2024/01/07 04:56:23;;;;;;;0.20;0.20;;;;;;;2.21;78.68;101601.34;5030866;28;20060;-78
2024/01/07 04:58:49;;;;;;;0.45;0.45;;;;;;;2.04;79.19;101601.72;5021591;28;20064;-77
2024/01/07 05:01:16;;;;;;;0.50;0.50;;;;;;;2.09;79.78;101601.66;5019007;28;20517;-77
2024/01/07 05:03:41;;;;;;;0.73;0.73;;;;;;;2.16;79.69;101596.88;5020071;28;20030;-77
2024/01/07 05:06:11;;;;;;;0.30;0.30;;;;;;;2.14;79.52;101608.81;5023874;28;20108;-77
2024/01/07 05:08:42;;;;;;;2.50;0.55;;;;;;;2.00;79.51;101613.94;5029681;28;20041;-78
2024/01/07 05:11:08;;;;;;;1.08;0.57;;;;;;;2.09;79.79;101611.53;5026884;28;20486;-77
2024/01/07 05:13:34;;;;;;;0.40;0.40;;;;;;;2.16;79.35;101604.03;5022715;28;20024;-78
2024/01/07 05:16:00;;;;;;;2.28;0.55;;;;;;;2.13;79.60;101613.34;5023587;28;20109;-77
2024/01/07 05:18:25;;;;;;;0.50;0.50;;;;;;;2.18;79.46;101615.19;5028089;28;20180;-77
2024/01/07 05:20:51;;;;;;;0.40;0.40;;;;;;;2.18;79.82;101617.84;5027383;28;20033;-77
2024/01/07 05:23:17;;;;;;;1.25;0.68;;;;;;;2.11;79.88;101625.31;5019798;28;20056;-77
2024/01/07 05:25:44;;;;;;;0.35;0.35;;;;;;;2.10;80.11;101629.03;5018158;28;20509;-77
2024/01/07 05:28:10;;;;;;;0.30;0.30;;;;;;;2.11;80.23;101627.97;5017122;28;20135;-77
2024/01/07 05:30:35;;;;;;;2.65;0.30;;;;;;;2.06;80.17;101630.63;5018485;28;20128;-77
2024/01/07 05:33:01;;;;;;;0.82;0.77;;;;;;;1.90;80.82;101627.25;5016986;28;20607;-78
2024/01/07 05:35:26;;;;;;;0.22;0.22;;;;;;;1.96;80.46;101636.78;5024226;28;20087;-77
2024/01/07 05:37:52;;;;;;;0.50;0.50;;;;;;;2.12;80.69;101626.88;5029465;28;20090;-78
2024/01/07 05:40:17;;;;;;;0.43;0.43;;;;;;;1.95;81.34;101637.88;5005422;28;20033;-78
2024/01/07 05:42:43;;;;;;;0.63;0.40;;;;;;;2.08;81.54;101641.78;5018769;28;20036;-78
2024/01/07 05:45:08;;;;;;;0.70;0.60;;;;;;;2.12;80.96;101646.28;5018518;28;20037;-77
2024/01/07 05:47:34;;;;;;;0.40;0.40;;;;;;;2.19;81.15;101652.09;5023369;28;20060;-78
2024/01/07 05:50:02;;;;;;;0.30;0.30;;;;;;;2.15;80.88;101655.56;5010974;28;20033;-78
2024/01/07 05:52:28;;;;;;;0.40;0.40;;;;;;;2.27;80.80;101661.34;5019947;28;20025;-78
2024/01/07 05:54:54;;;;;;;0.60;0.60;;;;;;;2.23;80.67;101657.63;5016181;28;20179;-78
2024/01/07 05:57:19;;;;;;;0.77;0.77;;;;;;;2.28;80.60;101660.28;5003198;28;20116;-77
2024/01/07 05:59:45;;;;;;;0.45;0.40;;;;;;;2.30;80.51;101666.13;5002305;28;20133;-78
2024/01/07 06:02:12;;;;;;;0.50;0.50;;;;;;;2.25;80.56;101658.16;5025100;28;20040;-78
2024/01/07 06:04:38;;;;;;;0.70;0.68;;;;;;;2.26;80.89;101665.06;5031095;28;20384;-78
2024/01/07 06:07:04;;;;;;;0.50;0.50;;;;;;;2.30;80.71;101671.44;5028017;28;20033;-77
2024/01/07 06:09:29;;;;;;;0.30;0.30;;;;;;;2.25;81.03;101669.59;5029181;28;20033;-77
2024/01/07 06:11:55;;;;;;;0.63;0.63;;;;;;;2.27;81.37;101674.63;5031637;28;20679;-77
2024/01/07 06:14:22;;;;;;;0.40;0.40;;;;;;;2.31;81.13;101678.31;5029714;28;20243;-77
2024/01/07 06:16:48;;;;;;;0.50;0.50;;;;;;;2.28;81.57;101681.53;5027109;28;20479;-77
2024/01/07 06:19:15;;;;;;;0.25;0.25;;;;;;;2.19;81.32;101688.50;5023239;28;20045;-78
2024/01/07 06:21:40;;;;;;;0.30;0.30;;;;;;;2.26;81.24;101681.00;5023996;28;20089;-77
2024/01/07 06:24:09;;;;;;;1.20;0.65;;;;;;;2.28;80.96;101685.00;5021403;28;20547;-77
2024/01/07 06:26:35;;;;;;;0.65;0.65;;;;;;;2.29;81.21;101688.44;5020221;28;20041;-77
2024/01/07 06:29:01;;;;;;;0.30;0.30;;;;;;;2.28;81.53;101684.19;5024467;28;20041;-77
2024/01/07 06:31:26;;;;;;;0.70;0.70;;;;;;;2.28;81.71;101679.69;5031997;28;20092;-77
2024/01/07 06:33:52;;;;;;;0.38;0.38;;;;;;;2.28;81.60;101686.84;5028443;28;20059;-78
2024/01/07 06:36:17;;;;;;;0.30;0.30;;;;;;;2.30;81.27;101693.50;5031276;28;20079;-78
2024/01/07 06:38:44;;;;;;;0.30;0.30;;;;;;;2.33;80.62;101690.28;5024213;28;20590;-77
2024/01/07 06:41:12;;;;;;;0.32;0.32;;;;;;;2.28;80.75;101692.97;5023897;28;20038;-77
2024/01/07 06:43:38;;;;;;;0.30;0.30;;;;;;;2.28;80.84;101703.59;5023377;28;21677;-78
2024/01/07 06:46:04;;;;;;;1.67;0.32;;;;;;;2.25;81.40;101700.66;5021301;28;20053;-78
2024/01/07 06:48:30;;;;;;;0.30;0.30;;;;;;;2.18;80.51;101705.50;5027903;28;20030;-77
2024/01/07 06:50:57;;;;;;;0.30;0.30;;;;;;;2.24;80.66;101704.41;5010241;28;20041;-77
2024/01/07 06:53:22;;;;;;;0.20;0.20;;;;;;;2.24;79.83;101699.09;5028138;28;20079;-78
2024/01/07 06:55:48;;;;;;;0.30;0.30;;;;;;;2.15;79.88;101711.34;5022653;28;20041;-78
2024/01/07 06:58:13;;;;;;;0.20;0.20;;;;;;;2.21;80.19;101704.94;5021787;28;20029;-77
2024/01/07 07:00:39;;;;;;;0.30;0.30;;;;;;;2.14;79.69;101705.25;5004779;28;20044;-79
2024/01/07 07:03:05;;;;;;;0.50;0.50;;;;;;;2.24;79.23;101709.72;5023215;28;20051;-78
2024/01/07 07:05:31;;;;;;;0.55;0.55;;;;;;;2.21;79.57;101721.69;5006231;28;20071;-77
2024/01/07 07:07:57;;;;;;;0.10;0.10;;;;;;;2.32;79.60;101725.09;5019699;28;20043;-78
2024/01/07 07:10:23;;;;;;;0.30;0.30;;;;;;;2.38;79.30;101727.44;5007065;28;20040;-77
2024/01/07 07:12:50;;;;;;;1.23;0.30;;;;;;;2.40;78.65;101729.84;5006455;28;20028;-77
2024/01/07 07:15:16;;;;;;;0.20;0.20;;;;;;;2.41;79.06;101742.03;5027572;28;20118;-77
2024/01/07 07:17:42;;;;;;;0.30;0.30;;;;;;;2.40;78.81;101743.13;5025926;28;20041;-77
2024/01/07 07:20:08;;;;;;;0.30;0.30;;;;;;;2.40;79.69;101745.78;5026860;28;20044;-77
2024/01/07 07:22:33;;;;;;;0.20;0.20;;;;;;;2.44;79.14;101746.84;5004883;28;20038;-78
2024/01/07 07:24:59;;;;;;;0.30;0.30;;;;;;;2.45;79.52;101756.38;5005639;28;20103;-77
2024/01/07 07:27:25;;;;;;;3.10;0.88;;;;;;;2.44;78.80;101757.47;5035294;28;20044;-78
2024/01/07 07:29:50;;;;;;;1.23;0.52;;;;;;;2.42;78.93;101757.72;5006753;28;20607;-77
2024/01/07 07:32:15;;;;;;;0.10;0.10;;;;;;;2.43;79.08;101769.16;5026110;28;20037;-77
2024/01/07 07:34:41;;;;;;;0.82;0.55;;;;;;;2.36;78.73;101766.78;5026629;28;20130;-77
2024/01/07 07:37:06;;;;;;;0.80;0.50;;;;;;;2.31;78.71;101773.97;5045707;28;20087;-77
2024/01/07 07:39:32;;;;;;;0.55;0.55;;;;;;;2.22;78.88;101771.09;5019637;28;21433;-77
2024/01/07 07:41:57;;;;;;;0.63;0.63;;;;;;;2.13;79.02;101775.34;5021887;28;20083;-77
2024/01/07 07:44:26;;;;;;;0.28;0.28;;;;;;;2.06;79.12;101782.03;5019306;28;20502;-78
2024/01/07 07:46:51;;;;;;;0.20;0.20;;;;;;;2.00;78.99;101778.59;5004129;28;20032;-77
2024/01/07 07:49:16;;;;;;;0.17;0.17;;;;;;;1.95;79.95;101783.13;5013932;28;20053;-77
2024/01/07 07:51:43;;;;;;;0.30;0.30;;;;;;;1.89;79.89;101785.00;5026018;28;20033;-77
2024/01/07 07:54:09;;;;;;;0.57;0.57;;;;;;;1.79;80.49;101785.81;5036669;28;20022;-77
2024/01/07 07:56:36;;;;;;;0.20;0.20;;;;;;;1.75;80.98;101794.56;5018967;28;20095;-77
2024/01/07 07:59:02;;;;;;;2.13;0.75;;;;;;;1.70;80.87;101791.94;5019865;28;20109;-77
2024/01/07 08:01:28;;;;;;;0.82;0.60;;;;;;;1.65;81.47;101790.06;5019010;28;20060;-78
2024/01/07 08:03:54;;;;;;;0.40;0.40;;;;;;;1.60;81.81;101805.19;5029038;28;20052;-77
2024/01/07 08:06:21;;;;;;;0.52;0.52;;;;;;;1.61;82.05;101802.28;5026668;28;20526;-77
2024/01/07 08:08:47;;;;;;;0.70;0.70;;;;;;;1.57;82.54;101800.41;5026509;28;20033;-77
2024/01/07 08:11:12;;;;;;;0.80;0.68;;;;;;;1.57;82.81;101811.03;5027516;28;20040;-77
2024/01/07 08:13:38;;;;;;;0.82;0.57;;;;;;;1.56;82.74;101804.13;5008498;28;20036;-77
2024/01/07 08:16:07;;;;;;;0.45;0.40;;;;;;;1.55;83.33;101808.63;5038472;28;20449;-78
2024/01/07 08:18:33;;;;;;;0.47;0.47;;;;;;;1.48;83.16;101818.75;5008323;28;20438;-78
2024/01/07 08:20:58;;;;;;;0.35;0.35;;;;;;;1.51;83.41;101820.84;5025948;28;20033;-77
2024/01/07 08:23:25;;;;;;;0.38;0.38;;;;;;;1.52;83.86;101819.00;5019878;28;20033;-78
2024/01/07 08:25:53;;;;;;;0.20;0.20;;;;;;;1.52;84.30;101822.44;5003252;28;20608;-78
2024/01/07 08:28:18;;;;;;;0.50;0.50;;;;;;;1.58;84.03;101831.22;5016992;28;20030;-78
2024/01/07 08:30:45;;;;;;;1.67;1.58;;;;;;;1.53;84.49;101836.53;5017404;28;20029;-78
2024/01/07 08:33:11;;;;;;;0.30;0.30;;;;;;;1.51;84.94;101822.72;5025441;28;20537;-78
2024/01/07 08:35:37;;;;;;;0.52;0.52;;;;;;;1.51;85.65;101836.00;5009135;28;20495;-78
2024/01/07 08:38:06;;;;;;;1.00;0.73;;;;;;;1.51;85.54;101831.47;5023758;28;20477;-78
2024/01/07 08:40:32;;;;;;;2.63;1.00;;;;;;;1.64;85.52;101838.13;5017906;28;20139;-78
2024/01/07 08:42:57;;;;;;;0.85;0.85;;;;;;;1.58;85.19;101842.63;5018931;28;20045;-78
2024/01/07 08:45:23;;;;;;;0.82;0.82;;;;;;;1.66;85.45;101844.75;5018570;28;20037;-78
2024/01/07 08:47:50;;;;;;;0.43;0.43;;;;;;;1.64;85.50;101852.19;5014919;28;20147;-77
2024/01/07 08:50:16;;;;;;;0.55;0.55;;;;;;;1.66;85.91;101855.38;5019183;28;20459;-77
2024/01/07 08:52:41;;;;;;;0.45;0.45;;;;;;;1.69;85.77;101854.81;5015556;28;20033;-78
2024/01/07 08:55:09;;;;;;;0.40;0.40;;;;;;;1.65;86.10;101863.56;5033374;28;20041;-77
2024/01/07 08:57:36;;;;;;;0.60;0.57;;;;;;;1.67;86.20;101856.16;5035384;28;20098;-77
2024/01/07 09:00:02;;;;;;;0.40;0.40;;;;;;;1.70;86.00;101853.75;5016007;28;20044;-78
2024/01/07 09:02:27;;;;;;;0.20;0.20;;;;;;;1.76;85.92;101865.19;5017097;28;20049;-79
2024/01/07 09:04:53;;;;;;;0.20;0.20;;;;;;;1.84;86.42;101869.94;5016898;28;20064;-78
2024/01/07 09:07:19;;;;;;;1.15;1.02;;;;;;;1.89;86.14;101871.81;5016990;28;20041;-78
2024/01/07 09:09:44;;;;;;;0.57;0.57;;;;;;;1.97;86.09;101882.72;5015735;28;20091;-78
2024/01/07 09:12:10;;;;;;;0.70;0.70;;;;;;;2.02;85.29;101890.66;5018198;28;21486;-77
2024/01/07 09:14:37;;;;;;;1.30;1.13;;;;;;;2.08;85.42;101894.91;5035602;28;20036;-77
2024/01/07 09:17:03;;;;;;;0.63;0.63;;;;;;;2.16;85.42;101882.94;5020763;28;20116;-77
2024/01/07 09:19:28;;;;;;;1.55;0.47;;;;;;;2.20;85.19;101892.78;5034259;28;20124;-79
2024/01/07 09:21:54;;;;;;;0.50;0.50;;;;;;;2.31;84.96;101891.69;5017330;28;20061;-77
2024/01/07 09:24:19;;;;;;;0.88;0.88;;;;;;;2.43;83.73;101894.06;5015673;28;20115;-78
2024/01/07 09:26:44;;;;;;;1.98;0.82;;;;;;;2.47;83.53;101885.28;5017137;28;20513;-77
2024/01/07 09:29:10;;;;;;;0.93;0.68;;;;;;;2.52;83.24;101903.84;5021288;28;20526;-77
2024/01/07 09:31:36;;;;;;;0.65;0.65;;;;;;;2.56;82.94;101888.97;5003127;28;20600;-78
2024/01/07 09:34:03;;;;;;;0.40;0.40;;;;;;;2.69;82.58;101892.94;5020072;28;20033;-77
2024/01/07 09:36:29;;;;;;;0.25;0.25;;;;;;;2.69;81.89;101888.38;5021449;28;20029;-77
2024/01/07 09:38:54;;;;;;;0.57;0.55;;;;;;;2.67;81.89;101901.16;5026204;28;20044;-77
2024/01/07 09:41:20;;;;;;;0.47;0.47;;;;;;;2.77;81.98;101900.31;5040590;28;20045;-77
2024/01/07 09:43:45;;;;;;;0.60;0.60;;;;;;;2.80;81.65;101899.00;5021340;28;20049;-77
2024/01/07 09:46:13;;;;;;;0.43;0.43;;;;;;;2.85;81.23;101915.72;5021302;28;20406;-77
2024/01/07 09:48:39;;;;;;;0.55;0.52;;;;;;;2.85;80.48;101904.28;5024662;28;20084;-77
2024/01/07 09:51:08;;;;;;;0.45;0.45;;;;;;;2.89;81.10;101908.78;5023556;28;20045;-77
2024/01/07 09:53:38;;;;;;;0.40;0.40;;;;;;;2.92;80.42;101913.59;5038333;28;20017;-77
2024/01/07 09:56:24;;;;;;;0.65;0.65;;;;;;;2.98;80.01;101914.34;5041765;28;20207;-77
2024/01/07 09:58:50;;;;;;;0.30;0.30;;;;;;;3.06;80.18;101929.75;5026859;28;20030;-77
2024/01/07 10:01:17;;;;;;;1.45;0.60;;;;;;;3.04;79.33;101922.03;5026487;28;20021;-78
2024/01/07 10:03:43;;;;;;;0.70;0.63;;;;;;;3.17;79.05;101918.78;5024244;28;20041;-76
2024/01/07 10:06:10;;;;;;;0.40;0.40;;;;;;;3.27;78.98;101923.25;5027410;28;20049;-77
2024/01/07 10:08:35;;;;;;;0.45;0.45;;;;;;;3.31;78.84;101925.09;5023508;28;20087;-78
2024/01/07 10:11:02;;;;;;;0.93;0.77;;;;;;;3.41;78.00;101925.03;5021684;28;20034;-77
2024/01/07 10:13:27;;;;;;;0.65;0.52;;;;;;;3.66;78.08;101924.06;5029642;28;20612;-77
2024/01/07 10:15:54;;;;;;;0.60;0.60;;;;;;;4.01;78.11;101931.00;5028646;28;20057;-77
2024/01/07 10:18:21;;;;;;;0.52;0.52;;;;;;;4.07;77.21;101930.69;5033654;28;20039;-77
2024/01/07 10:20:47;;;;;;;0.30;0.30;;;;;;;4.19;76.76;101923.13;5032937;28;20025;-77
2024/01/07 10:23:12;;;;;;;0.57;0.57;;;;;;;4.10;75.98;101924.03;5030654;28;20031;-77
2024/01/07 10:25:38;;;;;;;0.77;0.77;;;;;;;4.09;75.38;101925.06;5030638;28;20115;-77
2024/01/07 10:28:04;;;;;;;0.55;0.55;;;;;;;3.59;76.13;101924.41;5027397;28;20033;-76
2024/01/07 10:30:29;;;;;;;0.38;0.35;;;;;;;3.56;76.71;101919.59;5030308;28;20032;-77
2024/01/07 10:32:59;;;;;;;0.60;0.60;;;;;;;3.50;76.69;101920.72;5022965;28;20564;-78
2024/01/07 10:35:33;;;;;;;0.60;0.60;;;;;;;3.55;76.97;101920.69;5019505;28;20039;-77
2024/01/07 10:37:59;;;;;;;0.70;0.70;;;;;;;3.42;76.79;101913.34;5017430;28;20022;-77
2024/01/07 10:40:27;;;;;;;1.42;1.17;;;;;;;3.38;76.53;101930.91;5019625;28;20029;-78
2024/01/07 10:42:55;;;;;;;0.43;0.30;;;;;;;3.39;76.32;101932.50;5027689;28;20035;-76
2024/01/07 10:45:21;;;;;;;0.85;0.50;;;;;;;3.51;76.71;101929.50;5021880;28;20058;-76
2024/01/07 10:47:53;;;;;;;0.60;0.60;;;;;;;3.39;76.47;101935.16;5018754;28;20473;-77
2024/01/07 10:50:21;;;;;;;0.40;0.40;;;;;;;3.44;76.19;101937.81;5021567;28;20052;-79
2024/01/07 10:52:54;;;;;;;0.63;0.45;;;;;;;3.44;76.70;101931.69;5019434;28;20128;-78
2024/01/07 10:55:22;;;;;;;0.60;0.60;;;;;;;3.51;76.51;101938.28;5019973;28;20049;-76
2024/01/07 10:57:49;;;;;;;0.40;0.40;;;;;;;3.65;76.40;101936.63;5015287;28;20189;-78
2024/01/07 11:00:19;;;;;;;0.52;0.52;;;;;;;3.87;75.38;101938.06;4999984;28;20025;-77
2024/01/07 11:02:55;;;;;;;0.68;0.68;;;;;;;4.11;75.61;101941.59;5018266;28;20049;-77
2024/01/07 11:05:25;;;;;;;0.60;0.60;;;;;;;4.28;74.78;101940.09;5013950;28;20099;-77
2024/01/07 11:08:23;;;;;;;0.57;0.40;;;;;;;4.36;73.77;101933.34;5017502;28;20063;-77
2024/01/07 11:10:55;;;;;;;0.52;0.52;;;;;;;4.35;74.04;101937.91;4997741;28;20100;-78
2024/01/07 11:13:40;;;;;;;1.05;1.05;;;;;;;4.42;74.20;101948.25;5011651;28;20095;-77
2024/01/07 11:16:09;;;;;;;0.38;0.38;;;;;;;4.17;73.35;101946.59;5012368;28;20052;-77
2024/01/07 11:18:51;;;;;;;4.85;0.95;;;;;;;4.08;74.05;101937.63;5013912;28;20025;-77
2024/01/07 11:21:24;;;;;;;0.68;0.68;;;;;;;3.94;74.89;101936.66;5014499;28;20041;-77
2024/01/07 11:23:52;;;;;;;0.55;0.55;;;;;;;3.92;74.80;101946.00;5014294;28;20040;-77
2024/01/07 11:26:20;;;;;;;1.45;0.68;;;;;;;3.85;75.06;101935.69;5016957;28;20563;-77
2024/01/07 11:28:54;;;;;;;1.20;0.95;;;;;;;3.64;74.94;101940.34;5033402;28;20039;-78
2024/01/07 11:31:40;;;;;;;1.42;0.95;;;;;;;3.70;75.58;101932.31;5017543;28;20383;-76